sensor_id;sensor_type;location;lat;lon;timestamp;pressure;altitude;pressure_sealevel;temperature;humidity
70841;BME280;58465;51.534;9.934;2022-12-24T00:01:50;98804.00;;;10.92;87.46
70841;BME280;58465;51.534;9.934;2022-12-24T00:04:15;98800.41;;;10.93;87.37
70841;BME280;58465;51.534;9.934;2022-12-24T00:06:41;98805.53;;;10.98;87.46
70841;BME280;58465;51.534;9.934;2022-12-24T00:09:06;98801.22;;;10.95;87.35
70841;BME280;58465;51.534;9.934;2022-12-24T00:11:31;98808.34;;;10.95;87.33
70841;BME280;58465;51.534;9.934;2022-12-24T00:13:56;98814.56;;;10.95;87.67
70841;BME280;58465;51.534;9.934;2022-12-24T00:16:22;98817.53;;;10.88;87.58
70841;BME280;58465;51.534;9.934;2022-12-24T00:18:47;98811.94;;;10.94;87.30
70841;BME280;58465;51.534;9.934;2022-12-24T00:21:13;98820.84;;;10.94;87.27
70841;BME280;58465;51.534;9.934;2022-12-24T00:23:39;98807.47;;;10.94;87.05
70841;BME280;58465;51.534;9.934;2022-12-24T00:26:05;98826.19;;;10.94;87.06
70841;BME280;58465;51.534;9.934;2022-12-24T00:28:30;98819.63;;;10.81;86.90
70841;BME280;58465;51.534;9.934;2022-12-24T00:30:55;98822.56;;;10.75;86.79
70841;BME280;58465;51.534;9.934;2022-12-24T00:33:20;98827.81;;;10.76;86.95
70841;BME280;58465;51.534;9.934;2022-12-24T00:35:49;98832.50;;;10.71;87.03
70841;BME280;58465;51.534;9.934;2022-12-24T00:38:15;98840.44;;;10.73;87.10
70841;BME280;58465;51.534;9.934;2022-12-24T00:40:40;98843.00;;;10.76;87.05
70841;BME280;58465;51.534;9.934;2022-12-24T00:43:05;98841.97;;;10.78;87.33
70841;BME280;58465;51.534;9.934;2022-12-24T00:45:30;98837.31;;;10.84;87.07
70841;BME280;58465;51.534;9.934;2022-12-24T00:47:56;98837.66;;;10.76;86.79
70841;BME280;58465;51.534;9.934;2022-12-24T00:50:21;98848.41;;;10.74;86.56
70841;BME280;58465;51.534;9.934;2022-12-24T00:52:46;98843.13;;;10.73;86.81
70841;BME280;58465;51.534;9.934;2022-12-24T00:55:11;98851.00;;;10.76;86.63
70841;BME280;58465;51.534;9.934;2022-12-24T00:57:37;98858.94;;;10.77;86.69
70841;BME280;58465;51.534;9.934;2022-12-24T01:00:03;98863.16;;;10.83;86.42
70841;BME280;58465;51.534;9.934;2022-12-24T01:02:28;98860.59;;;10.80;86.81
70841;BME280;58465;51.534;9.934;2022-12-24T01:04:54;98869.59;;;10.77;86.40
70841;BME280;58465;51.534;9.934;2022-12-24T01:07:35;98862.47;;;10.78;86.36
70841;BME280;58465;51.534;9.934;2022-12-24T01:10:02;98869.50;;;10.81;85.69
70841;BME280;58465;51.534;9.934;2022-12-24T01:12:27;98877.44;;;10.82;86.01
70841;BME280;58465;51.534;9.934;2022-12-24T01:14:52;98897.00;;;10.83;85.75
70841;BME280;58465;51.534;9.934;2022-12-24T01:17:18;98909.59;;;10.79;85.75
70841;BME280;58465;51.534;9.934;2022-12-24T01:19:43;98893.53;;;10.81;85.87
70841;BME280;58465;51.534;9.934;2022-12-24T01:22:08;98906.94;;;10.79;86.01
70841;BME280;58465;51.534;9.934;2022-12-24T01:24:34;98907.09;;;10.76;85.60
70841;BME280;58465;51.534;9.934;2022-12-24T01:26:59;98909.94;;;10.71;85.95
70841;BME280;58465;51.534;9.934;2022-12-24T01:29:24;98913.59;;;10.69;86.26
70841;BME280;58465;51.534;9.934;2022-12-24T01:31:49;98921.66;;;10.67;86.45
70841;BME280;58465;51.534;9.934;2022-12-24T01:34:15;98923.53;;;10.65;86.02
70841;BME280;58465;51.534;9.934;2022-12-24T01:36:40;98934.34;;;10.62;85.76
70841;BME280;58465;51.534;9.934;2022-12-24T01:39:05;98937.94;;;10.61;85.80
70841;BME280;58465;51.534;9.934;2022-12-24T01:41:31;98932.47;;;10.64;85.81
70841;BME280;58465;51.534;9.934;2022-12-24T01:44:27;98940.66;;;10.60;85.16
70841;BME280;58465;51.534;9.934;2022-12-24T01:47:07;98946.81;;;10.62;85.36
70841;BME280;58465;51.534;9.934;2022-12-24T01:49:34;98957.50;;;10.62;85.29
70841;BME280;58465;51.534;9.934;2022-12-24T01:52:08;98952.09;;;10.63;85.43
70841;BME280;58465;51.534;9.934;2022-12-24T01:54:45;98956.56;;;10.63;85.49
70841;BME280;58465;51.534;9.934;2022-12-24T01:57:22;98952.03;;;10.65;85.63
70841;BME280;58465;51.534;9.934;2022-12-24T01:59:52;98968.19;;;10.62;85.31
70841;BME280;58465;51.534;9.934;2022-12-24T02:02:20;98965.81;;;10.54;85.61
70841;BME280;58465;51.534;9.934;2022-12-24T02:04:51;98975.00;;;10.47;84.93
70841;BME280;58465;51.534;9.934;2022-12-24T02:07:20;98979.13;;;10.56;84.24
70841;BME280;58465;51.534;9.934;2022-12-24T02:09:46;98995.91;;;10.58;83.97
70841;BME280;58465;51.534;9.934;2022-12-24T02:12:12;98997.66;;;10.59;84.44
70841;BME280;58465;51.534;9.934;2022-12-24T02:14:38;98987.22;;;10.53;84.14
70841;BME280;58465;51.534;9.934;2022-12-24T02:17:13;98987.19;;;10.54;83.93
70841;BME280;58465;51.534;9.934;2022-12-24T02:25:28;99005.63;;;10.60;83.51
70841;BME280;58465;51.534;9.934;2022-12-24T02:31:01;99018.25;;;10.57;82.01
70841;BME280;58465;51.534;9.934;2022-12-24T02:33:34;99019.84;;;10.61;81.06
70841;BME280;58465;51.534;9.934;2022-12-24T02:36:14;99027.84;;;10.61;81.32
70841;BME280;58465;51.534;9.934;2022-12-24T02:39:07;99032.09;;;10.66;80.19
70841;BME280;58465;51.534;9.934;2022-12-24T02:41:38;99035.28;;;10.76;80.38
70841;BME280;58465;51.534;9.934;2022-12-24T02:44:26;99049.56;;;10.75;80.22
70841;BME280;58465;51.534;9.934;2022-12-24T02:46:53;99048.31;;;10.84;78.99
70841;BME280;58465;51.534;9.934;2022-12-24T02:49:19;99048.19;;;10.87;78.95
70841;BME280;58465;51.534;9.934;2022-12-24T02:51:44;99057.56;;;10.97;78.20
70841;BME280;58465;51.534;9.934;2022-12-24T02:54:10;99057.09;;;11.09;78.09
70841;BME280;58465;51.534;9.934;2022-12-24T02:57:06;99062.13;;;11.16;77.09
70841;BME280;58465;51.534;9.934;2022-12-24T03:00:00;99059.00;;;11.05;76.81
70841;BME280;58465;51.534;9.934;2022-12-24T03:02:56;99056.66;;;10.98;77.08
70841;BME280;58465;51.534;9.934;2022-12-24T03:05:37;99071.44;;;11.06;77.41
70841;BME280;58465;51.534;9.934;2022-12-24T03:10:46;99075.75;;;11.10;76.99
70841;BME280;58465;51.534;9.934;2022-12-24T03:13:16;99081.16;;;11.09;76.76
70841;BME280;58465;51.534;9.934;2022-12-24T03:15:45;99082.63;;;11.16;77.16
70841;BME280;58465;51.534;9.934;2022-12-24T03:18:13;99094.44;;;11.10;77.51
70841;BME280;58465;51.534;9.934;2022-12-24T03:20:44;99092.59;;;11.12;76.67
70841;BME280;58465;51.534;9.934;2022-12-24T03:23:10;99105.75;;;11.17;76.54
70841;BME280;58465;51.534;9.934;2022-12-24T03:25:39;99104.94;;;11.15;77.77
70841;BME280;58465;51.534;9.934;2022-12-24T03:28:06;99107.34;;;10.99;76.23
70841;BME280;58465;51.534;9.934;2022-12-24T03:30:33;99125.72;;;10.85;77.34
70841;BME280;58465;51.534;9.934;2022-12-24T03:32:58;99119.53;;;10.85;76.90
70841;BME280;58465;51.534;9.934;2022-12-24T03:35:24;99137.00;;;10.93;76.89
70841;BME280;58465;51.534;9.934;2022-12-24T03:37:49;99134.44;;;10.90;75.73
70841;BME280;58465;51.534;9.934;2022-12-24T03:40:15;99134.03;;;11.01;76.14
70841;BME280;58465;51.534;9.934;2022-12-24T03:42:40;99143.84;;;11.00;74.89
70841;BME280;58465;51.534;9.934;2022-12-24T03:45:05;99132.22;;;11.01;75.51
70841;BME280;58465;51.534;9.934;2022-12-24T03:47:31;99142.13;;;10.98;75.88
70841;BME280;58465;51.534;9.934;2022-12-24T03:49:56;99142.66;;;11.07;74.81
70841;BME280;58465;51.534;9.934;2022-12-24T03:52:22;99138.06;;;11.11;75.48
70841;BME280;58465;51.534;9.934;2022-12-24T03:54:47;99142.97;;;11.00;72.68
70841;BME280;58465;51.534;9.934;2022-12-24T03:57:12;99144.41;;;11.08;72.76
70841;BME280;58465;51.534;9.934;2022-12-24T03:59:37;99140.84;;;11.08;72.46
70841;BME280;58465;51.534;9.934;2022-12-24T04:02:03;99153.47;;;11.04;72.63
70841;BME280;58465;51.534;9.934;2022-12-24T04:04:28;99150.47;;;11.13;72.20
70841;BME280;58465;51.534;9.934;2022-12-24T04:06:53;99149.75;;;11.08;73.71
70841;BME280;58465;51.534;9.934;2022-12-24T04:09:18;99151.53;;;11.08;73.95
70841;BME280;58465;51.534;9.934;2022-12-24T04:11:43;99150.38;;;11.15;73.08
70841;BME280;58465;51.534;9.934;2022-12-24T04:14:09;99147.91;;;11.10;72.25
70841;BME280;58465;51.534;9.934;2022-12-24T04:16:34;99164.53;;;11.17;72.54
70841;BME280;58465;51.534;9.934;2022-12-24T04:18:59;99155.81;;;11.13;72.30
70841;BME280;58465;51.534;9.934;2022-12-24T04:21:25;99154.06;;;11.12;72.40
70841;BME280;58465;51.534;9.934;2022-12-24T04:23:50;99160.94;;;11.18;73.28
70841;BME280;58465;51.534;9.934;2022-12-24T04:26:15;99155.84;;;11.12;72.71
70841;BME280;58465;51.534;9.934;2022-12-24T04:28:41;99172.19;;;11.04;72.60
70841;BME280;58465;51.534;9.934;2022-12-24T04:31:10;99161.41;;;11.06;73.07
70841;BME280;58465;51.534;9.934;2022-12-24T04:33:36;99156.50;;;10.95;73.12
70841;BME280;58465;51.534;9.934;2022-12-24T04:36:04;99166.72;;;10.84;72.80
70841;BME280;58465;51.534;9.934;2022-12-24T04:38:30;99171.41;;;10.77;72.52
70841;BME280;58465;51.534;9.934;2022-12-24T04:41:00;99170.47;;;10.78;72.96
70841;BME280;58465;51.534;9.934;2022-12-24T04:43:27;99179.56;;;10.74;73.31
70841;BME280;58465;51.534;9.934;2022-12-24T04:45:52;99189.50;;;10.69;74.40
70841;BME280;58465;51.534;9.934;2022-12-24T04:48:18;99195.38;;;10.56;73.66
70841;BME280;58465;51.534;9.934;2022-12-24T04:50:43;99191.00;;;10.53;72.90
70841;BME280;58465;51.534;9.934;2022-12-24T04:53:08;99197.28;;;10.52;73.60
70841;BME280;58465;51.534;9.934;2022-12-24T04:55:33;99191.16;;;10.49;75.01
70841;BME280;58465;51.534;9.934;2022-12-24T04:57:59;99201.09;;;10.45;73.93
70841;BME280;58465;51.534;9.934;2022-12-24T05:00:24;99202.06;;;10.43;74.55
70841;BME280;58465;51.534;9.934;2022-12-24T05:02:49;99203.97;;;10.39;74.42
70841;BME280;58465;51.534;9.934;2022-12-24T05:05:14;99205.06;;;10.33;74.28
70841;BME280;58465;51.534;9.934;2022-12-24T05:07:40;99223.50;;;10.39;73.76
70841;BME280;58465;51.534;9.934;2022-12-24T05:10:05;99227.75;;;10.47;73.54
70841;BME280;58465;51.534;9.934;2022-12-24T05:12:31;99231.97;;;10.52;71.64
70841;BME280;58465;51.534;9.934;2022-12-24T05:14:56;99244.31;;;10.56;72.54
70841;BME280;58465;51.534;9.934;2022-12-24T05:17:22;99238.00;;;10.57;73.37
70841;BME280;58465;51.534;9.934;2022-12-24T05:19:47;99245.38;;;10.51;71.59
70841;BME280;58465;51.534;9.934;2022-12-24T05:22:12;99242.44;;;10.58;72.24
70841;BME280;58465;51.534;9.934;2022-12-24T05:24:56;99233.22;;;10.67;71.95
70841;BME280;58465;51.534;9.934;2022-12-24T05:27:40;99246.56;;;10.67;71.09
70841;BME280;58465;51.534;9.934;2022-12-24T05:30:06;99245.06;;;10.60;72.10
70841;BME280;58465;51.534;9.934;2022-12-24T05:32:31;99244.81;;;10.41;69.51
70841;BME280;58465;51.534;9.934;2022-12-24T05:34:56;99251.91;;;10.42;71.07
70841;BME280;58465;51.534;9.934;2022-12-24T05:37:22;99251.34;;;10.32;72.71
70841;BME280;58465;51.534;9.934;2022-12-24T05:39:47;99258.78;;;10.23;72.56
70841;BME280;58465;51.534;9.934;2022-12-24T05:42:12;99272.31;;;10.18;72.71
70841;BME280;58465;51.534;9.934;2022-12-24T05:44:37;99272.31;;;10.18;72.52
70841;BME280;58465;51.534;9.934;2022-12-24T05:47:03;99277.66;;;10.18;72.83
70841;BME280;58465;51.534;9.934;2022-12-24T05:49:28;99273.38;;;10.11;73.43
70841;BME280;58465;51.534;9.934;2022-12-24T05:51:54;99272.31;;;10.17;71.99
70841;BME280;58465;51.534;9.934;2022-12-24T05:54:20;99262.75;;;10.10;72.33
70841;BME280;58465;51.534;9.934;2022-12-24T05:56:45;99261.75;;;10.14;70.44
70841;BME280;58465;51.534;9.934;2022-12-24T05:59:10;99274.09;;;10.18;71.57
70841;BME280;58465;51.534;9.934;2022-12-24T06:01:35;99274.25;;;10.12;71.14
70841;BME280;58465;51.534;9.934;2022-12-24T06:04:01;99283.34;;;10.06;72.38
70841;BME280;58465;51.534;9.934;2022-12-24T06:06:27;99277.38;;;9.98;71.69
70841;BME280;58465;51.534;9.934;2022-12-24T06:08:53;99277.53;;;9.93;73.16
70841;BME280;58465;51.534;9.934;2022-12-24T06:11:21;99294.59;;;9.88;73.03
70841;BME280;58465;51.534;9.934;2022-12-24T06:13:46;99303.44;;;9.90;73.50
70841;BME280;58465;51.534;9.934;2022-12-24T06:16:15;99305.84;;;9.97;71.85
70841;BME280;58465;51.534;9.934;2022-12-24T06:18:41;99299.34;;;10.06;71.96
70841;BME280;58465;51.534;9.934;2022-12-24T06:21:07;99304.38;;;10.15;71.67
70841;BME280;58465;51.534;9.934;2022-12-24T06:23:34;99299.13;;;10.12;72.21
70841;BME280;58465;51.534;9.934;2022-12-24T06:26:01;99289.56;;;10.07;72.23
70841;BME280;58465;51.534;9.934;2022-12-24T06:28:31;99297.97;;;9.93;73.42
70841;BME280;58465;51.534;9.934;2022-12-24T06:30:57;99307.06;;;9.87;73.47
70841;BME280;58465;51.534;9.934;2022-12-24T06:33:23;99312.69;;;9.78;73.68
70841;BME280;58465;51.534;9.934;2022-12-24T06:35:48;99306.66;;;9.72;75.15
70841;BME280;58465;51.534;9.934;2022-12-24T06:38:14;99309.19;;;9.76;76.23
70841;BME280;58465;51.534;9.934;2022-12-24T06:40:41;99309.16;;;9.78;76.96
70841;BME280;58465;51.534;9.934;2022-12-24T06:43:07;99302.94;;;9.77;75.58
70841;BME280;58465;51.534;9.934;2022-12-24T06:45:32;99302.03;;;9.78;76.60
70841;BME280;58465;51.534;9.934;2022-12-24T06:47:58;99305.84;;;9.70;75.66
70841;BME280;58465;51.534;9.934;2022-12-24T06:50:23;99307.69;;;9.67;75.69
70841;BME280;58465;51.534;9.934;2022-12-24T06:52:49;99311.94;;;9.73;76.77
70841;BME280;58465;51.534;9.934;2022-12-24T06:55:14;99311.59;;;9.84;74.75
70841;BME280;58465;51.534;9.934;2022-12-24T06:57:39;99324.38;;;10.02;75.21
70841;BME280;58465;51.534;9.934;2022-12-24T07:00:07;99332.13;;;10.10;73.33
70841;BME280;58465;51.534;9.934;2022-12-24T07:02:32;99328.34;;;10.18;73.37
70841;BME280;58465;51.534;9.934;2022-12-24T07:04:57;99332.47;;;10.28;73.39
70841;BME280;58465;51.534;9.934;2022-12-24T07:07:23;99327.84;;;10.33;73.08
70841;BME280;58465;51.534;9.934;2022-12-24T07:09:48;99338.47;;;10.35;71.81
70841;BME280;58465;51.534;9.934;2022-12-24T07:12:13;99338.41;;;10.36;73.23
70841;BME280;58465;51.534;9.934;2022-12-24T07:14:38;99338.75;;;10.26;73.67
70841;BME280;58465;51.534;9.934;2022-12-24T07:17:04;99349.31;;;10.29;74.36
70841;BME280;58465;51.534;9.934;2022-12-24T07:19:29;99347.91;;;10.17;74.96
70841;BME280;58465;51.534;9.934;2022-12-24T07:21:54;99349.84;;;10.12;76.11
70841;BME280;58465;51.534;9.934;2022-12-24T07:24:19;99362.47;;;10.07;76.94
70841;BME280;58465;51.534;9.934;2022-12-24T07:26:45;99359.88;;;10.04;76.69
70841;BME280;58465;51.534;9.934;2022-12-24T07:29:10;99359.97;;;10.01;76.48
70841;BME280;58465;51.534;9.934;2022-12-24T07:31:36;99364.44;;;10.00;76.68
70841;BME280;58465;51.534;9.934;2022-12-24T07:34:01;99368.84;;;10.01;76.69
70841;BME280;58465;51.534;9.934;2022-12-24T07:36:26;99382.19;;;10.01;76.55
70841;BME280;58465;51.534;9.934;2022-12-24T07:38:52;99390.94;;;10.07;76.46
70841;BME280;58465;51.534;9.934;2022-12-24T07:41:18;99381.81;;;10.14;76.99
70841;BME280;58465;51.534;9.934;2022-12-24T07:43:43;99392.41;;;10.17;75.94
70841;BME280;58465;51.534;9.934;2022-12-24T07:46:08;99388.63;;;10.24;76.75
70841;BME280;58465;51.534;9.934;2022-12-24T07:48:34;99397.44;;;10.27;77.08
70841;BME280;58465;51.534;9.934;2022-12-24T07:51:00;99397.72;;;10.18;76.85
70841;BME280;58465;51.534;9.934;2022-12-24T07:53:27;99409.72;;;10.02;76.79
70841;BME280;58465;51.534;9.934;2022-12-24T07:55:53;99406.50;;;9.91;76.51
70841;BME280;58465;51.534;9.934;2022-12-24T07:58:19;99410.22;;;9.87;76.93
70841;BME280;58465;51.534;9.934;2022-12-24T08:00:44;99409.06;;;9.95;78.10
70841;BME280;58465;51.534;9.934;2022-12-24T08:03:20;99420.28;;;10.07;77.85
70841;BME280;58465;51.534;9.934;2022-12-24T08:05:45;99421.66;;;10.20;77.91
70841;BME280;58465;51.534;9.934;2022-12-24T08:08:11;99416.13;;;10.27;78.11
70841;BME280;58465;51.534;9.934;2022-12-24T08:10:38;99410.03;;;10.22;75.41
70841;BME280;58465;51.534;9.934;2022-12-24T08:13:09;99416.84;;;10.32;75.71
70841;BME280;58465;51.534;9.934;2022-12-24T08:15:34;99419.25;;;10.40;76.28
70841;BME280;58465;51.534;9.934;2022-12-24T08:18:00;99431.63;;;10.43;76.74
70841;BME280;58465;51.534;9.934;2022-12-24T08:20:25;99438.16;;;10.34;76.42
70841;BME280;58465;51.534;9.934;2022-12-24T08:22:51;99444.66;;;10.25;77.59
70841;BME280;58465;51.534;9.934;2022-12-24T08:25:17;99440.56;;;10.12;78.29
70841;BME280;58465;51.534;9.934;2022-12-24T08:27:42;99437.25;;;10.04;78.73
70841;BME280;58465;51.534;9.934;2022-12-24T08:30:08;99441.88;;;9.99;79.11
70841;BME280;58465;51.534;9.934;2022-12-24T08:32:33;99457.00;;;9.98;79.81
70841;BME280;58465;51.534;9.934;2022-12-24T08:34:59;99448.00;;;10.01;80.25
70841;BME280;58465;51.534;9.934;2022-12-24T08:37:24;99449.66;;;10.05;80.21
70841;BME280;58465;51.534;9.934;2022-12-24T08:39:49;99440.72;;;10.08;80.15
70841;BME280;58465;51.534;9.934;2022-12-24T08:42:14;99434.66;;;10.01;80.31
70841;BME280;58465;51.534;9.934;2022-12-24T08:44:40;99440.19;;;9.95;80.47
70841;BME280;58465;51.534;9.934;2022-12-24T08:47:05;99455.56;;;9.87;80.71
70841;BME280;58465;51.534;9.934;2022-12-24T08:49:30;99461.19;;;9.76;80.86
70841;BME280;58465;51.534;9.934;2022-12-24T08:51:56;99471.06;;;9.73;81.60
70841;BME280;58465;51.534;9.934;2022-12-24T08:54:22;99466.25;;;9.85;81.94
70841;BME280;58465;51.534;9.934;2022-12-24T08:56:47;99476.63;;;9.96;81.54
70841;BME280;58465;51.534;9.934;2022-12-24T08:59:13;99473.81;;;10.00;81.64
70841;BME280;58465;51.534;9.934;2022-12-24T09:01:38;99474.41;;;10.10;82.10
70841;BME280;58465;51.534;9.934;2022-12-24T09:04:03;99482.16;;;10.19;81.44
70841;BME280;58465;51.534;9.934;2022-12-24T09:06:31;99475.00;;;10.21;80.95
70841;BME280;58465;51.534;9.934;2022-12-24T09:08:56;99486.16;;;10.35;81.44
70841;BME280;58465;51.534;9.934;2022-12-24T09:11:21;99486.88;;;10.40;81.21
70841;BME280;58465;51.534;9.934;2022-12-24T09:13:47;99488.69;;;10.38;80.68
70841;BME280;58465;51.534;9.934;2022-12-24T09:16:12;99497.53;;;10.40;81.14
70841;BME280;58465;51.534;9.934;2022-12-24T09:18:38;99491.31;;;10.40;81.38
70841;BME280;58465;51.534;9.934;2022-12-24T09:21:09;99513.41;;;10.47;81.19
70841;BME280;58465;51.534;9.934;2022-12-24T09:23:37;99508.84;;;10.49;80.89
70841;BME280;58465;51.534;9.934;2022-12-24T09:26:06;99521.41;;;10.47;80.36
70841;BME280;58465;51.534;9.934;2022-12-24T09:28:32;99516.88;;;10.49;80.84
70841;BME280;58465;51.534;9.934;2022-12-24T09:30:59;99525.59;;;10.26;81.00
70841;BME280;58465;51.534;9.934;2022-12-24T09:33:26;99530.56;;;10.38;80.76
70841;BME280;58465;51.534;9.934;2022-12-24T09:35:52;99523.47;;;10.37;81.07
70841;BME280;58465;51.534;9.934;2022-12-24T09:38:18;99544.84;;;10.37;80.45
70841;BME280;58465;51.534;9.934;2022-12-24T09:40:45;99539.09;;;10.49;79.99
70841;BME280;58465;51.534;9.934;2022-12-24T09:43:15;99534.28;;;10.62;79.59
70841;BME280;58465;51.534;9.934;2022-12-24T09:45:47;99540.56;;;10.59;79.49
70841;BME280;58465;51.534;9.934;2022-12-24T09:48:16;99538.66;;;10.64;79.40
70841;BME280;58465;51.534;9.934;2022-12-24T09:50:52;99540.13;;;10.74;78.81
70841;BME280;58465;51.534;9.934;2022-12-24T09:56:03;99542.84;;;11.01;78.09
70841;BME280;58465;51.534;9.934;2022-12-24T09:58:34;99551.22;;;11.16;77.91
70841;BME280;58465;51.534;9.934;2022-12-24T10:01:01;99556.22;;;11.27;78.02
70841;BME280;58465;51.534;9.934;2022-12-24T10:03:27;99548.88;;;11.34;77.79
70841;BME280;58465;51.534;9.934;2022-12-24T10:06:03;99550.38;;;11.42;77.82
70841;BME280;58465;51.534;9.934;2022-12-24T10:08:48;99548.31;;;11.50;77.50
70841;BME280;58465;51.534;9.934;2022-12-24T10:14:39;99558.13;;;11.50;76.95
70841;BME280;58465;51.534;9.934;2022-12-24T10:20:24;99572.63;;;11.43;76.27
70841;BME280;58465;51.534;9.934;2022-12-24T10:28:49;99566.09;;;11.78;76.41
70841;BME280;58465;51.534;9.934;2022-12-24T10:31:18;99562.84;;;11.68;76.00
70841;BME280;58465;51.534;9.934;2022-12-24T10:33:49;99569.13;;;11.67;75.84
70841;BME280;58465;51.534;9.934;2022-12-24T10:36:21;99565.53;;;11.68;75.33
70841;BME280;58465;51.534;9.934;2022-12-24T10:38:48;99570.81;;;11.70;75.70
70841;BME280;58465;51.534;9.934;2022-12-24T10:41:15;99573.44;;;11.71;76.39
70841;BME280;58465;51.534;9.934;2022-12-24T10:43:41;99586.50;;;11.82;76.79
70841;BME280;58465;51.534;9.934;2022-12-24T10:46:17;99579.00;;;11.92;76.67
70841;BME280;58465;51.534;9.934;2022-12-24T10:48:51;99586.00;;;11.96;76.09
70841;BME280;58465;51.534;9.934;2022-12-24T10:51:28;99596.25;;;12.08;75.50
70841;BME280;58465;51.534;9.934;2022-12-24T10:54:05;99593.50;;;12.11;75.39
70841;BME280;58465;51.534;9.934;2022-12-24T10:56:31;99587.94;;;12.15;75.92
70841;BME280;58465;51.534;9.934;2022-12-24T10:58:56;99585.72;;;12.28;74.73
70841;BME280;58465;51.534;9.934;2022-12-24T11:01:42;99600.84;;;12.29;72.60
70841;BME280;58465;51.534;9.934;2022-12-24T11:04:14;99606.91;;;12.34;72.93
70841;BME280;58465;51.534;9.934;2022-12-24T11:09:28;99612.56;;;12.50;71.46
70841;BME280;58465;51.534;9.934;2022-12-24T11:11:55;99618.16;;;12.44;71.74
70841;BME280;58465;51.534;9.934;2022-12-24T11:14:22;99617.66;;;12.57;72.71
70841;BME280;58465;51.534;9.934;2022-12-24T11:16:53;99608.09;;;12.74;72.76
70841;BME280;58465;51.534;9.934;2022-12-24T11:19:34;99612.69;;;12.93;70.89
70841;BME280;58465;51.534;9.934;2022-12-24T11:22:04;99620.09;;;12.87;70.56
70841;BME280;58465;51.534;9.934;2022-12-24T11:24:33;99609.44;;;12.85;71.07
70841;BME280;58465;51.534;9.934;2022-12-24T11:32:48;99614.97;;;12.57;72.33
70841;BME280;58465;51.534;9.934;2022-12-24T11:35:20;99614.69;;;12.40;73.84
70841;BME280;58465;51.534;9.934;2022-12-24T11:37:56;99621.34;;;12.30;73.65
70841;BME280;58465;51.534;9.934;2022-12-24T11:40:35;99623.19;;;12.28;74.11
70841;BME280;58465;51.534;9.934;2022-12-24T11:43:02;99607.53;;;12.17;74.58
70841;BME280;58465;51.534;9.934;2022-12-24T11:45:30;99608.00;;;12.29;75.54
70841;BME280;58465;51.534;9.934;2022-12-24T11:47:57;99606.22;;;12.52;74.67
70841;BME280;58465;51.534;9.934;2022-12-24T11:55:48;99613.00;;;13.08;71.47
70841;BME280;58465;51.534;9.934;2022-12-24T11:58:44;99608.34;;;13.13;72.27
70841;BME280;58465;51.534;9.934;2022-12-24T12:01:17;99599.69;;;13.06;71.53
70841;BME280;58465;51.534;9.934;2022-12-24T12:03:48;99594.91;;;12.91;70.82
70841;BME280;58465;51.534;9.934;2022-12-24T12:06:32;99614.78;;;12.85;70.83
70841;BME280;58465;51.534;9.934;2022-12-24T12:09:11;99606.41;;;12.71;71.08
70841;BME280;58465;51.534;9.934;2022-12-24T12:11:39;99606.34;;;12.73;71.83
70841;BME280;58465;51.534;9.934;2022-12-24T12:14:12;99597.38;;;12.74;71.62
70841;BME280;58465;51.534;9.934;2022-12-24T12:17:03;99613.19;;;12.80;71.58
70841;BME280;58465;51.534;9.934;2022-12-24T12:19:43;99612.31;;;12.79;71.70
70841;BME280;58465;51.534;9.934;2022-12-24T12:22:21;99625.38;;;12.88;71.69
70841;BME280;58465;51.534;9.934;2022-12-24T12:24:50;99620.41;;;13.01;72.58
70841;BME280;58465;51.534;9.934;2022-12-24T12:27:34;99622.63;;;13.13;73.12
70841;BME280;58465;51.534;9.934;2022-12-24T12:30:19;99630.66;;;13.13;71.48
70841;BME280;58465;51.534;9.934;2022-12-24T12:35:32;99634.78;;;13.45;71.34
70841;BME280;58465;51.534;9.934;2022-12-24T12:38:04;99629.09;;;13.53;70.76
70841;BME280;58465;51.534;9.934;2022-12-24T12:43:40;99625.41;;;13.55;68.27
70841;BME280;58465;51.534;9.934;2022-12-24T12:48:53;99620.13;;;13.54;69.08
70841;BME280;58465;51.534;9.934;2022-12-24T12:51:29;99632.66;;;13.53;70.40
70841;BME280;58465;51.534;9.934;2022-12-24T12:54:16;99626.53;;;13.50;70.71
70841;BME280;58465;51.534;9.934;2022-12-24T12:56:48;99635.63;;;13.46;70.93
70841;BME280;58465;51.534;9.934;2022-12-24T12:59:19;99633.41;;;13.35;70.20
70841;BME280;58465;51.534;9.934;2022-12-24T13:20:41;99677.78;;;12.97;70.34
70841;BME280;58465;51.534;9.934;2022-12-24T13:23:13;99677.66;;;13.00;71.96
70841;BME280;58465;51.534;9.934;2022-12-24T13:25:45;99677.47;;;13.05;72.20
70841;BME280;58465;51.534;9.934;2022-12-24T13:30:42;99683.59;;;13.08;71.04
70841;BME280;58465;51.534;9.934;2022-12-24T13:33:12;99681.41;;;12.96;70.73
70841;BME280;58465;51.534;9.934;2022-12-24T13:35:59;99691.59;;;12.86;70.08
70841;BME280;58465;51.534;9.934;2022-12-24T13:40:54;99682.09;;;12.78;72.31
70841;BME280;58465;51.534;9.934;2022-12-24T13:43:20;99695.69;;;12.72;70.19
70841;BME280;58465;51.534;9.934;2022-12-24T13:45:47;99691.31;;;12.69;70.81
70841;BME280;58465;51.534;9.934;2022-12-24T13:48:30;99691.06;;;12.77;71.52
70841;BME280;58465;51.534;9.934;2022-12-24T13:50:59;99704.06;;;12.87;71.96
70841;BME280;58465;51.534;9.934;2022-12-24T13:53:38;99710.75;;;12.99;72.44
70841;BME280;58465;51.534;9.934;2022-12-24T13:58:36;99713.22;;;12.80;68.42
70841;BME280;58465;51.534;9.934;2022-12-24T14:01:05;99710.75;;;12.76;69.72
70841;BME280;58465;51.534;9.934;2022-12-24T14:03:40;99713.22;;;12.80;71.51
70841;BME280;58465;51.534;9.934;2022-12-24T14:06:12;99717.06;;;12.73;70.40
70841;BME280;58465;51.534;9.934;2022-12-24T14:08:46;99711.78;;;12.72;71.80
70841;BME280;58465;51.534;9.934;2022-12-24T14:11:16;99712.66;;;12.72;72.56
70841;BME280;58465;51.534;9.934;2022-12-24T14:16:17;99720.91;;;12.66;72.09
70841;BME280;58465;51.534;9.934;2022-12-24T14:19:03;99716.38;;;12.68;70.89
70841;BME280;58465;51.534;9.934;2022-12-24T14:21:37;99718.78;;;12.76;71.18
70841;BME280;58465;51.534;9.934;2022-12-24T14:24:15;99721.88;;;12.88;70.97
70841;BME280;58465;51.534;9.934;2022-12-24T14:26:48;99717.81;;;13.01;72.16